Airfield :







YOU CAN JOIN US ON...

 
LOGIN :

Register | Disclaimer

   EN    FR    IT 

 









Legend :    VFR   Marginal VFR   IFR   Intensive IFR   Very Intensive IFR
Visi :
Ceiling :
>= 8 km
>= 3000ft
5 to 8 km
1000 to 3000 ft
1500m to 5 km
500 to 1000 ft
800 to 1500m
200 to 500 ft
< 800m
< 200 ft
Symbols :   Thunderstorms  Fog  Heavy snow  Heavy precipitations  Wind > 20 kt






- Airport Elevation : 119 ft
- IATA code : YPJ


CYLA - Aupaluk

CURRENT METAR :
  • 172000Z 24014G21KT 15SM DRSN FEW026 BKN069 BKN080 M26/M31 A2989 RMK SC1AS4AC2 SNW CVR/TRACE LOOSE LAST STFD OBS/NXT 181300Z SLP130

EXPIRED METARs :
  • 171900Z 24021G26KT 13SM DRSN FEW051 FEW063 BKN069 BKN085 OVC240 M26/M31 A2987 RMK SC1SC2AS4AC1CI1 SC TR SLP123
  • 171800Z 24020KT 13SM DRSN FEW051 SCT063 OVC071 M26/M32 A2986 RMK SC1SC2AS5 SLP118

TAF N/A



MET'MAP, your aeronautical weather chart ! - Copyright ORBIFLY December 2007 - Disclaimer

ORBIFLY MET'MAP TEAM :

Programming & Development : Alexandra Zaïnal
Concept & original design : Baudouin d'Aumeries
Assistance for programming : Marc-Olivier Méhu
Technical & hardware support : Manuel Goepfert

Contact : metmap@orbifly.com




SOURCES & CREDITS :

   NOAA